sensor_id;sensor_type;location;lat;lon;timestamp;P1;durP1;ratioP1;P2;durP2;ratioP2
67456;SDS011;54319;52.038;4.640;2024-03-22T00:01:42;39.25;;;17.92;;
67456;SDS011;54319;52.038;4.640;2024-03-22T00:04:11;42.40;;;18.38;;
67456;SDS011;54319;52.038;4.640;2024-03-22T00:06:37;38.63;;;18.15;;
67456;SDS011;54319;52.038;4.640;2024-03-22T00:09:03;39.07;;;19.53;;
67456;SDS011;54319;52.038;4.640;2024-03-22T00:11:29;38.85;;;18.98;;
67456;SDS011;54319;52.038;4.640;2024-03-22T00:13:56;42.03;;;19.17;;
67456;SDS011;54319;52.038;4.640;2024-03-22T00:16:21;38.88;;;17.73;;
67456;SDS011;54319;52.038;4.640;2024-03-22T00:18:48;44.37;;;19.07;;
67456;SDS011;54319;52.038;4.640;2024-03-22T00:21:15;42.55;;;18.38;;
67456;SDS011;54319;52.038;4.640;2024-03-22T00:23:42;43.92;;;18.67;;
67456;SDS011;54319;52.038;4.640;2024-03-22T00:26:08;36.78;;;18.13;;
67456;SDS011;54319;52.038;4.640;2024-03-22T00:28:34;41.73;;;19.27;;
67456;SDS011;54319;52.038;4.640;2024-03-22T00:31:00;37.92;;;17.60;;
67456;SDS011;54319;52.038;4.640;2024-03-22T00:33:27;44.88;;;18.67;;
67456;SDS011;54319;52.038;4.640;2024-03-22T00:35:52;48.65;;;19.13;;
67456;SDS011;54319;52.038;4.640;2024-03-22T00:38:20;37.37;;;18.23;;
67456;SDS011;54319;52.038;4.640;2024-03-22T00:40:46;39.53;;;18.88;;
67456;SDS011;54319;52.038;4.640;2024-03-22T00:43:12;46.90;;;20.23;;
67456;SDS011;54319;52.038;4.640;2024-03-22T00:45:38;40.38;;;19.83;;
67456;SDS011;54319;52.038;4.640;2024-03-22T00:48:05;48.70;;;19.67;;
67456;SDS011;54319;52.038;4.640;2024-03-22T00:50:31;44.80;;;19.55;;
67456;SDS011;54319;52.038;4.640;2024-03-22T00:52:57;42.30;;;20.57;;
67456;SDS011;54319;52.038;4.640;2024-03-22T00:55:24;45.67;;;21.33;;
67456;SDS011;54319;52.038;4.640;2024-03-22T00:57:51;50.50;;;21.90;;
67456;SDS011;54319;52.038;4.640;2024-03-22T01:00:17;44.03;;;22.40;;
67456;SDS011;54319;52.038;4.640;2024-03-22T01:02:44;48.28;;;21.65;;
67456;SDS011;54319;52.038;4.640;2024-03-22T01:05:09;47.90;;;21.35;;
67456;SDS011;54319;52.038;4.640;2024-03-22T01:07:36;53.40;;;21.63;;
67456;SDS011;54319;52.038;4.640;2024-03-22T01:10:02;45.33;;;21.13;;
67456;SDS011;54319;52.038;4.640;2024-03-22T01:12:31;50.90;;;21.75;;
67456;SDS011;54319;52.038;4.640;2024-03-22T01:14:56;52.92;;;22.33;;
67456;SDS011;54319;52.038;4.640;2024-03-22T01:17:24;50.77;;;21.53;;
67456;SDS011;54319;52.038;4.640;2024-03-22T01:19:50;52.50;;;21.13;;
67456;SDS011;54319;52.038;4.640;2024-03-22T01:22:17;45.78;;;20.30;;
67456;SDS011;54319;52.038;4.640;2024-03-22T01:24:44;48.15;;;20.73;;
67456;SDS011;54319;52.038;4.640;2024-03-22T01:27:11;48.17;;;20.08;;
67456;SDS011;54319;52.038;4.640;2024-03-22T01:29:38;45.00;;;19.52;;
67456;SDS011;54319;52.038;4.640;2024-03-22T01:32:05;45.47;;;19.67;;
67456;SDS011;54319;52.038;4.640;2024-03-22T01:34:31;49.95;;;18.63;;
67456;SDS011;54319;52.038;4.640;2024-03-22T01:36:58;42.72;;;18.02;;
67456;SDS011;54319;52.038;4.640;2024-03-22T01:39:23;41.97;;;17.98;;
67456;SDS011;54319;52.038;4.640;2024-03-22T01:41:50;43.85;;;17.67;;
67456;SDS011;54319;52.038;4.640;2024-03-22T01:44:16;45.60;;;17.92;;
67456;SDS011;54319;52.038;4.640;2024-03-22T01:49:13;44.95;;;16.45;;
67456;SDS011;54319;52.038;4.640;2024-03-22T01:51:42;41.08;;;17.27;;
67456;SDS011;54319;52.038;4.640;2024-03-22T01:54:08;42.28;;;17.58;;
67456;SDS011;54319;52.038;4.640;2024-03-22T01:56:36;41.42;;;17.80;;
67456;SDS011;54319;52.038;4.640;2024-03-22T01:59:02;43.60;;;17.00;;
67456;SDS011;54319;52.038;4.640;2024-03-22T02:01:30;39.50;;;17.52;;
67456;SDS011;54319;52.038;4.640;2024-03-22T02:03:57;45.25;;;17.67;;
67456;SDS011;54319;52.038;4.640;2024-03-22T02:06:24;39.90;;;16.95;;
67456;SDS011;54319;52.038;4.640;2024-03-22T02:08:50;38.92;;;16.80;;
67456;SDS011;54319;52.038;4.640;2024-03-22T02:11:16;33.85;;;16.45;;
67456;SDS011;54319;52.038;4.640;2024-03-22T02:13:42;36.72;;;16.65;;
67456;SDS011;54319;52.038;4.640;2024-03-22T02:16:09;36.08;;;16.40;;
67456;SDS011;54319;52.038;4.640;2024-03-22T02:18:35;36.08;;;15.18;;
67456;SDS011;54319;52.038;4.640;2024-03-22T02:21:03;37.67;;;15.60;;
67456;SDS011;54319;52.038;4.640;2024-03-22T02:23:32;31.65;;;14.55;;
67456;SDS011;54319;52.038;4.640;2024-03-22T02:25:59;37.65;;;14.45;;
67456;SDS011;54319;52.038;4.640;2024-03-22T02:28:25;32.78;;;14.38;;
67456;SDS011;54319;52.038;4.640;2024-03-22T02:30:51;31.10;;;14.10;;
67456;SDS011;54319;52.038;4.640;2024-03-22T02:33:17;34.40;;;14.52;;
67456;SDS011;54319;52.038;4.640;2024-03-22T02:35:45;36.65;;;14.82;;
67456;SDS011;54319;52.038;4.640;2024-03-22T02:38:11;31.33;;;13.82;;
67456;SDS011;54319;52.038;4.640;2024-03-22T02:40:39;31.60;;;13.50;;
67456;SDS011;54319;52.038;4.640;2024-03-22T02:43:05;28.23;;;13.35;;
67456;SDS011;54319;52.038;4.640;2024-03-22T02:45:31;37.65;;;14.05;;
67456;SDS011;54319;52.038;4.640;2024-03-22T02:47:57;29.20;;;13.15;;
67456;SDS011;54319;52.038;4.640;2024-03-22T02:50:25;36.17;;;13.48;;
67456;SDS011;54319;52.038;4.640;2024-03-22T02:52:51;29.30;;;13.02;;
67456;SDS011;54319;52.038;4.640;2024-03-22T02:55:18;33.63;;;13.70;;
67456;SDS011;54319;52.038;4.640;2024-03-22T02:57:45;26.85;;;12.68;;
67456;SDS011;54319;52.038;4.640;2024-03-22T03:00:11;28.42;;;12.68;;
67456;SDS011;54319;52.038;4.640;2024-03-22T03:02:37;32.67;;;13.00;;
67456;SDS011;54319;52.038;4.640;2024-03-22T03:05:04;27.83;;;12.52;;
67456;SDS011;54319;52.038;4.640;2024-03-22T03:07:31;27.85;;;12.77;;
67456;SDS011;54319;52.038;4.640;2024-03-22T03:09:57;24.53;;;12.43;;
67456;SDS011;54319;52.038;4.640;2024-03-22T03:12:23;25.90;;;11.95;;
67456;SDS011;54319;52.038;4.640;2024-03-22T03:14:51;25.80;;;12.38;;
67456;SDS011;54319;52.038;4.640;2024-03-22T03:17:17;34.67;;;13.27;;
67456;SDS011;54319;52.038;4.640;2024-03-22T03:19:43;26.58;;;13.43;;
67456;SDS011;54319;52.038;4.640;2024-03-22T03:22:09;29.20;;;12.60;;
67456;SDS011;54319;52.038;4.640;2024-03-22T03:24:36;35.33;;;13.53;;
67456;SDS011;54319;52.038;4.640;2024-03-22T03:27:01;26.90;;;11.43;;
67456;SDS011;54319;52.038;4.640;2024-03-22T03:29:28;25.13;;;11.88;;
67456;SDS011;54319;52.038;4.640;2024-03-22T03:31:55;26.55;;;13.15;;
67456;SDS011;54319;52.038;4.640;2024-03-22T03:34:22;25.15;;;12.15;;
67456;SDS011;54319;52.038;4.640;2024-03-22T03:36:47;21.10;;;10.95;;
67456;SDS011;54319;52.038;4.640;2024-03-22T03:39:14;21.88;;;10.52;;
67456;SDS011;54319;52.038;4.640;2024-03-22T03:41:39;26.73;;;10.98;;
67456;SDS011;54319;52.038;4.640;2024-03-22T03:44:06;31.13;;;12.05;;
67456;SDS011;54319;52.038;4.640;2024-03-22T03:46:32;31.70;;;11.18;;
67456;SDS011;54319;52.038;4.640;2024-03-22T03:49:00;29.90;;;11.50;;
67456;SDS011;54319;52.038;4.640;2024-03-22T03:51:25;26.80;;;11.38;;
67456;SDS011;54319;52.038;4.640;2024-03-22T03:53:52;27.47;;;11.50;;
67456;SDS011;54319;52.038;4.640;2024-03-22T03:56:18;26.95;;;11.88;;
67456;SDS011;54319;52.038;4.640;2024-03-22T03:58:45;28.00;;;11.10;;
67456;SDS011;54319;52.038;4.640;2024-03-22T04:01:11;24.27;;;11.43;;
67456;SDS011;54319;52.038;4.640;2024-03-22T04:03:37;34.10;;;12.02;;
67456;SDS011;54319;52.038;4.640;2024-03-22T04:06:07;28.75;;;11.40;;
67456;SDS011;54319;52.038;4.640;2024-03-22T04:08:34;25.42;;;10.55;;
67456;SDS011;54319;52.038;4.640;2024-03-22T04:10:59;27.63;;;10.45;;
67456;SDS011;54319;52.038;4.640;2024-03-22T04:13:26;24.97;;;10.07;;
67456;SDS011;54319;52.038;4.640;2024-03-22T04:15:53;34.08;;;10.40;;
67456;SDS011;54319;52.038;4.640;2024-03-22T04:18:19;22.52;;;9.23;;
67456;SDS011;54319;52.038;4.640;2024-03-22T04:20:53;24.98;;;9.80;;
67456;SDS011;54319;52.038;4.640;2024-03-22T04:23:22;24.73;;;9.65;;
67456;SDS011;54319;52.038;4.640;2024-03-22T04:25:52;23.10;;;9.82;;
67456;SDS011;54319;52.038;4.640;2024-03-22T04:28:20;18.67;;;9.77;;
67456;SDS011;54319;52.038;4.640;2024-03-22T04:30:53;21.95;;;9.25;;
67456;SDS011;54319;52.038;4.640;2024-03-22T04:33:22;23.35;;;9.25;;
67456;SDS011;54319;52.038;4.640;2024-03-22T04:35:48;26.80;;;9.45;;
67456;SDS011;54319;52.038;4.640;2024-03-22T04:38:15;21.35;;;9.45;;
67456;SDS011;54319;52.038;4.640;2024-03-22T04:40:43;26.70;;;9.20;;
67456;SDS011;54319;52.038;4.640;2024-03-22T04:43:09;22.42;;;10.35;;
67456;SDS011;54319;52.038;4.640;2024-03-22T04:45:36;23.13;;;10.03;;
67456;SDS011;54319;52.038;4.640;2024-03-22T04:48:03;24.70;;;9.93;;
67456;SDS011;54319;52.038;4.640;2024-03-22T04:50:30;23.90;;;10.38;;
67456;SDS011;54319;52.038;4.640;2024-03-22T04:52:56;29.83;;;10.43;;
67456;SDS011;54319;52.038;4.640;2024-03-22T04:55:23;24.67;;;10.18;;
67456;SDS011;54319;52.038;4.640;2024-03-22T04:57:51;23.83;;;10.35;;
67456;SDS011;54319;52.038;4.640;2024-03-22T05:00:18;24.83;;;9.73;;
67456;SDS011;54319;52.038;4.640;2024-03-22T05:02:44;23.35;;;9.15;;
67456;SDS011;54319;52.038;4.640;2024-03-22T05:05:11;24.10;;;10.50;;
67456;SDS011;54319;52.038;4.640;2024-03-22T05:07:36;27.65;;;9.98;;
67456;SDS011;54319;52.038;4.640;2024-03-22T05:10:06;20.50;;;8.88;;
67456;SDS011;54319;52.038;4.640;2024-03-22T05:12:32;21.42;;;9.75;;
67456;SDS011;54319;52.038;4.640;2024-03-22T05:15:00;22.38;;;10.05;;
67456;SDS011;54319;52.038;4.640;2024-03-22T05:17:25;26.17;;;10.65;;
67456;SDS011;54319;52.038;4.640;2024-03-22T05:19:52;24.30;;;10.93;;
67456;SDS011;54319;52.038;4.640;2024-03-22T05:22:17;29.40;;;11.13;;
67456;SDS011;54319;52.038;4.640;2024-03-22T05:24:45;32.25;;;11.52;;
67456;SDS011;54319;52.038;4.640;2024-03-22T05:27:11;28.80;;;11.27;;
67456;SDS011;54319;52.038;4.640;2024-03-22T05:29:38;25.97;;;11.97;;
67456;SDS011;54319;52.038;4.640;2024-03-22T05:32:05;33.05;;;12.18;;
67456;SDS011;54319;52.038;4.640;2024-03-22T05:34:32;31.45;;;11.63;;
67456;SDS011;54319;52.038;4.640;2024-03-22T05:36:58;28.05;;;11.30;;
67456;SDS011;54319;52.038;4.640;2024-03-22T05:39:25;24.40;;;10.60;;
67456;SDS011;54319;52.038;4.640;2024-03-22T05:41:50;24.45;;;11.10;;
67456;SDS011;54319;52.038;4.640;2024-03-22T05:44:17;23.88;;;10.43;;
67456;SDS011;54319;52.038;4.640;2024-03-22T05:46:43;25.63;;;10.40;;
67456;SDS011;54319;52.038;4.640;2024-03-22T05:49:11;21.17;;;9.87;;
67456;SDS011;54319;52.038;4.640;2024-03-22T05:51:36;26.15;;;10.55;;
67456;SDS011;54319;52.038;4.640;2024-03-22T05:54:03;21.27;;;9.90;;
67456;SDS011;54319;52.038;4.640;2024-03-22T05:56:29;25.85;;;10.18;;
67456;SDS011;54319;52.038;4.640;2024-03-22T05:58:56;29.25;;;11.43;;
67456;SDS011;54319;52.038;4.640;2024-03-22T06:01:21;24.52;;;10.80;;
67456;SDS011;54319;52.038;4.640;2024-03-22T06:03:48;20.87;;;10.20;;
67456;SDS011;54319;52.038;4.640;2024-03-22T06:06:15;29.73;;;11.38;;
67456;SDS011;54319;52.038;4.640;2024-03-22T06:08:42;28.38;;;10.82;;
67456;SDS011;54319;52.038;4.640;2024-03-22T06:11:08;26.53;;;10.30;;
67456;SDS011;54319;52.038;4.640;2024-03-22T06:13:37;31.00;;;11.07;;
67456;SDS011;54319;52.038;4.640;2024-03-22T06:16:03;29.80;;;10.13;;
67456;SDS011;54319;52.038;4.640;2024-03-22T06:18:30;27.27;;;11.00;;
67456;SDS011;54319;52.038;4.640;2024-03-22T06:20:57;23.15;;;10.18;;
67456;SDS011;54319;52.038;4.640;2024-03-22T06:23:25;25.15;;;10.65;;
67456;SDS011;54319;52.038;4.640;2024-03-22T06:25:51;30.27;;;10.05;;
67456;SDS011;54319;52.038;4.640;2024-03-22T06:28:18;25.23;;;10.45;;
67456;SDS011;54319;52.038;4.640;2024-03-22T06:30:44;22.15;;;10.93;;
67456;SDS011;54319;52.038;4.640;2024-03-22T06:33:10;25.63;;;10.87;;
67456;SDS011;54319;52.038;4.640;2024-03-22T06:35:36;28.77;;;10.23;;
67456;SDS011;54319;52.038;4.640;2024-03-22T06:38:02;28.17;;;10.40;;
67456;SDS011;54319;52.038;4.640;2024-03-22T06:40:30;24.88;;;9.90;;
67456;SDS011;54319;52.038;4.640;2024-03-22T06:42:57;24.05;;;9.80;;
67456;SDS011;54319;52.038;4.640;2024-03-22T06:45:23;28.55;;;9.82;;
67456;SDS011;54319;52.038;4.640;2024-03-22T06:47:50;25.55;;;9.38;;
67456;SDS011;54319;52.038;4.640;2024-03-22T06:50:16;20.98;;;9.93;;
67456;SDS011;54319;52.038;4.640;2024-03-22T06:52:43;23.50;;;9.52;;
67456;SDS011;54319;52.038;4.640;2024-03-22T06:55:08;29.35;;;9.90;;
67456;SDS011;54319;52.038;4.640;2024-03-22T06:57:36;21.00;;;9.07;;
67456;SDS011;54319;52.038;4.640;2024-03-22T07:00:02;20.52;;;9.45;;
67456;SDS011;54319;52.038;4.640;2024-03-22T07:02:29;24.77;;;9.95;;
67456;SDS011;54319;52.038;4.640;2024-03-22T07:04:55;25.55;;;9.75;;
67456;SDS011;54319;52.038;4.640;2024-03-22T07:07:21;23.25;;;9.75;;
67456;SDS011;54319;52.038;4.640;2024-03-22T07:09:47;18.45;;;9.15;;
67456;SDS011;54319;52.038;4.640;2024-03-22T07:12:13;22.67;;;8.63;;
67456;SDS011;54319;52.038;4.640;2024-03-22T07:14:40;17.73;;;8.45;;
67456;SDS011;54319;52.038;4.640;2024-03-22T07:17:07;24.08;;;8.80;;
67456;SDS011;54319;52.038;4.640;2024-03-22T07:19:33;26.42;;;8.40;;
67456;SDS011;54319;52.038;4.640;2024-03-22T07:22:00;17.92;;;8.05;;
67456;SDS011;54319;52.038;4.640;2024-03-22T07:24:25;26.98;;;9.02;;
67456;SDS011;54319;52.038;4.640;2024-03-22T07:26:52;27.42;;;8.25;;
67456;SDS011;54319;52.038;4.640;2024-03-22T07:29:17;20.75;;;7.80;;
67456;SDS011;54319;52.038;4.640;2024-03-22T07:31:46;22.48;;;8.43;;
67456;SDS011;54319;52.038;4.640;2024-03-22T07:34:11;24.17;;;8.85;;
67456;SDS011;54319;52.038;4.640;2024-03-22T07:36:38;17.30;;;8.00;;
67456;SDS011;54319;52.038;4.640;2024-03-22T07:39:04;19.63;;;7.35;;
67456;SDS011;54319;52.038;4.640;2024-03-22T07:41:32;22.52;;;7.68;;
67456;SDS011;54319;52.038;4.640;2024-03-22T07:43:58;20.35;;;7.63;;
67456;SDS011;54319;52.038;4.640;2024-03-22T07:46:25;18.15;;;7.82;;
67456;SDS011;54319;52.038;4.640;2024-03-22T07:48:52;24.67;;;8.07;;
67456;SDS011;54319;52.038;4.640;2024-03-22T07:51:19;23.98;;;7.63;;
67456;SDS011;54319;52.038;4.640;2024-03-22T07:53:45;21.67;;;7.60;;
67456;SDS011;54319;52.038;4.640;2024-03-22T07:56:11;25.63;;;7.50;;
67456;SDS011;54319;52.038;4.640;2024-03-22T07:58:37;20.38;;;7.78;;
67456;SDS011;54319;52.038;4.640;2024-03-22T08:01:04;20.38;;;7.43;;
67456;SDS011;54319;52.038;4.640;2024-03-22T08:03:30;18.45;;;7.05;;
67456;SDS011;54319;52.038;4.640;2024-03-22T08:05:58;27.50;;;8.17;;
67456;SDS011;54319;52.038;4.640;2024-03-22T08:08:23;19.42;;;7.40;;
67456;SDS011;54319;52.038;4.640;2024-03-22T08:10:50;20.02;;;7.13;;
67456;SDS011;54319;52.038;4.640;2024-03-22T08:13:16;18.42;;;7.38;;
67456;SDS011;54319;52.038;4.640;2024-03-22T08:15:43;26.50;;;7.25;;
67456;SDS011;54319;52.038;4.640;2024-03-22T08:20:37;18.30;;;7.10;;
67456;SDS011;54319;52.038;4.640;2024-03-22T08:23:05;27.23;;;8.13;;
67456;SDS011;54319;52.038;4.640;2024-03-22T08:25:32;20.50;;;7.38;;
67456;SDS011;54319;52.038;4.640;2024-03-22T08:27:57;23.08;;;7.50;;
67456;SDS011;54319;52.038;4.640;2024-03-22T08:30:25;20.52;;;7.10;;
67456;SDS011;54319;52.038;4.640;2024-03-22T08:32:51;22.67;;;7.28;;
67456;SDS011;54319;52.038;4.640;2024-03-22T08:35:17;22.65;;;7.40;;
67456;SDS011;54319;52.038;4.640;2024-03-22T08:37:43;25.23;;;9.52;;
67456;SDS011;54319;52.038;4.640;2024-03-22T08:40:12;23.63;;;7.70;;
67456;SDS011;54319;52.038;4.640;2024-03-22T08:42:39;22.77;;;7.97;;
67456;SDS011;54319;52.038;4.640;2024-03-22T08:45:07;23.88;;;7.57;;
67456;SDS011;54319;52.038;4.640;2024-03-22T08:47:33;20.27;;;8.13;;
67456;SDS011;54319;52.038;4.640;2024-03-22T08:50:00;34.78;;;9.13;;
67456;SDS011;54319;52.038;4.640;2024-03-22T08:52:26;26.23;;;8.82;;
67456;SDS011;54319;52.038;4.640;2024-03-22T08:54:52;24.63;;;8.33;;
67456;SDS011;54319;52.038;4.640;2024-03-22T08:57:19;23.60;;;8.32;;
67456;SDS011;54319;52.038;4.640;2024-03-22T08:59:47;21.33;;;8.13;;
67456;SDS011;54319;52.038;4.640;2024-03-22T09:02:12;22.75;;;8.63;;
67456;SDS011;54319;52.038;4.640;2024-03-22T09:04:39;25.85;;;9.55;;
67456;SDS011;54319;52.038;4.640;2024-03-22T09:07:05;27.50;;;9.20;;
67456;SDS011;54319;52.038;4.640;2024-03-22T09:09:32;21.23;;;8.88;;
67456;SDS011;54319;52.038;4.640;2024-03-22T09:11:59;19.80;;;8.07;;
67456;SDS011;54319;52.038;4.640;2024-03-22T09:14:27;26.50;;;9.18;;
67456;SDS011;54319;52.038;4.640;2024-03-22T09:16:52;19.92;;;8.52;;
67456;SDS011;54319;52.038;4.640;2024-03-22T09:19:19;25.23;;;8.60;;
67456;SDS011;54319;52.038;4.640;2024-03-22T09:21:45;26.35;;;9.05;;
67456;SDS011;54319;52.038;4.640;2024-03-22T09:24:11;24.33;;;9.40;;
67456;SDS011;54319;52.038;4.640;2024-03-22T09:26:37;19.63;;;9.23;;
67456;SDS011;54319;52.038;4.640;2024-03-22T09:29:03;29.58;;;9.27;;
67456;SDS011;54319;52.038;4.640;2024-03-22T09:31:30;25.95;;;8.73;;
67456;SDS011;54319;52.038;4.640;2024-03-22T09:33:58;23.92;;;9.02;;
67456;SDS011;54319;52.038;4.640;2024-03-22T09:36:24;33.60;;;10.00;;
67456;SDS011;54319;52.038;4.640;2024-03-22T09:38:50;26.42;;;8.57;;
67456;SDS011;54319;52.038;4.640;2024-03-22T09:41:17;26.75;;;10.00;;
67456;SDS011;54319;52.038;4.640;2024-03-22T09:43:48;24.17;;;9.43;;
67456;SDS011;54319;52.038;4.640;2024-03-22T09:46:15;33.38;;;9.52;;
67456;SDS011;54319;52.038;4.640;2024-03-22T09:48:46;26.45;;;9.25;;
67456;SDS011;54319;52.038;4.640;2024-03-22T09:51:13;33.00;;;9.90;;
67456;SDS011;54319;52.038;4.640;2024-03-22T09:53:41;26.13;;;9.13;;
67456;SDS011;54319;52.038;4.640;2024-03-22T09:56:09;21.55;;;8.95;;
67456;SDS011;54319;52.038;4.640;2024-03-22T09:58:40;23.48;;;9.02;;
67456;SDS011;54319;52.038;4.640;2024-03-22T10:01:06;25.65;;;9.15;;
67456;SDS011;54319;52.038;4.640;2024-03-22T10:03:33;21.63;;;9.45;;
67456;SDS011;54319;52.038;4.640;2024-03-22T10:06:01;27.50;;;10.23;;
67456;SDS011;54319;52.038;4.640;2024-03-22T10:08:27;30.15;;;9.70;;
67456;SDS011;54319;52.038;4.640;2024-03-22T10:10:53;24.83;;;9.57;;
67456;SDS011;54319;52.038;4.640;2024-03-22T10:13:19;24.63;;;9.40;;
67456;SDS011;54319;52.038;4.640;2024-03-22T10:15:46;23.65;;;9.25;;
67456;SDS011;54319;52.038;4.640;2024-03-22T10:18:14;24.85;;;9.85;;
67456;SDS011;54319;52.038;4.640;2024-03-22T10:20:40;19.98;;;9.13;;
67456;SDS011;54319;52.038;4.640;2024-03-22T10:23:09;24.90;;;9.13;;
67456;SDS011;54319;52.038;4.640;2024-03-22T10:28:02;26.10;;;9.55;;
67456;SDS011;54319;52.038;4.640;2024-03-22T10:30:28;26.17;;;9.43;;
67456;SDS011;54319;52.038;4.640;2024-03-22T10:35:21;17.17;;;8.35;;
67456;SDS011;54319;52.038;4.640;2024-03-22T10:37:49;19.15;;;8.70;;
67456;SDS011;54319;52.038;4.640;2024-03-22T10:40:17;20.58;;;8.20;;
67456;SDS011;54319;52.038;4.640;2024-03-22T10:42:45;15.77;;;7.70;;
67456;SDS011;54319;52.038;4.640;2024-03-22T10:45:11;16.83;;;7.85;;
67456;SDS011;54319;52.038;4.640;2024-03-22T10:47:39;12.95;;;7.50;;
67456;SDS011;54319;52.038;4.640;2024-03-22T10:50:06;16.93;;;8.07;;
67456;SDS011;54319;52.038;4.640;2024-03-22T10:52:37;17.38;;;7.65;;
67456;SDS011;54319;52.038;4.640;2024-03-22T10:55:12;15.38;;;7.53;;
67456;SDS011;54319;52.038;4.640;2024-03-22T10:57:46;18.42;;;8.43;;
67456;SDS011;54319;52.038;4.640;2024-03-22T11:00:12;19.90;;;8.50;;
67456;SDS011;54319;52.038;4.640;2024-03-22T11:02:42;16.63;;;8.57;;
67456;SDS011;54319;52.038;4.640;2024-03-22T11:05:15;18.42;;;8.63;;
67456;SDS011;54319;52.038;4.640;2024-03-22T11:07:44;16.30;;;8.63;;
67456;SDS011;54319;52.038;4.640;2024-03-22T11:10:11;18.38;;;8.45;;
67456;SDS011;54319;52.038;4.640;2024-03-22T11:12:39;17.15;;;8.23;;
67456;SDS011;54319;52.038;4.640;2024-03-22T11:15:07;17.83;;;8.63;;
67456;SDS011;54319;52.038;4.640;2024-03-22T11:17:35;15.07;;;8.40;;
67456;SDS011;54319;52.038;4.640;2024-03-22T11:20:02;15.40;;;8.63;;
67456;SDS011;54319;52.038;4.640;2024-03-22T11:22:28;16.23;;;9.32;;
67456;SDS011;54319;52.038;4.640;2024-03-22T11:24:55;20.35;;;9.25;;
67456;SDS011;54319;52.038;4.640;2024-03-22T11:27:21;18.88;;;9.88;;
67456;SDS011;54319;52.038;4.640;2024-03-22T11:29:47;20.33;;;10.35;;
67456;SDS011;54319;52.038;4.640;2024-03-22T11:32:17;23.38;;;9.65;;
67456;SDS011;54319;52.038;4.640;2024-03-22T11:34:43;15.48;;;9.43;;
67456;SDS011;54319;52.038;4.640;2024-03-22T11:37:11;18.05;;;9.23;;
67456;SDS011;54319;52.038;4.640;2024-03-22T11:39:37;18.10;;;9.88;;
67456;SDS011;54319;52.038;4.640;2024-03-22T11:42:04;18.65;;;9.57;;
67456;SDS011;54319;52.038;4.640;2024-03-22T11:44:31;16.88;;;9.05;;
67456;SDS011;54319;52.038;4.640;2024-03-22T11:46:58;18.58;;;9.05;;
67456;SDS011;54319;52.038;4.640;2024-03-22T11:49:27;19.25;;;9.18;;
67456;SDS011;54319;52.038;4.640;2024-03-22T11:51:54;20.00;;;9.45;;
67456;SDS011;54319;52.038;4.640;2024-03-22T11:54:22;18.65;;;9.00;;
67456;SDS011;54319;52.038;4.640;2024-03-22T11:56:49;19.23;;;8.93;;
67456;SDS011;54319;52.038;4.640;2024-03-22T11:59:17;19.63;;;8.35;;
67456;SDS011;54319;52.038;4.640;2024-03-22T12:01:45;19.30;;;8.80;;
67456;SDS011;54319;52.038;4.640;2024-03-22T12:04:11;15.27;;;8.05;;
67456;SDS011;54319;52.038;4.640;2024-03-22T12:06:42;14.05;;;8.05;;
67456;SDS011;54319;52.038;4.640;2024-03-22T12:09:07;17.55;;;8.10;;
67456;SDS011;54319;52.038;4.640;2024-03-22T12:11:36;17.42;;;8.00;;
67456;SDS011;54319;52.038;4.640;2024-03-22T12:14:02;14.93;;;7.82;;
67456;SDS011;54319;52.038;4.640;2024-03-22T12:16:28;17.73;;;8.80;;
67456;SDS011;54319;52.038;4.640;2024-03-22T12:18:56;18.27;;;8.18;;
67456;SDS011;54319;52.038;4.640;2024-03-22T12:21:22;16.88;;;7.95;;
67456;SDS011;54319;52.038;4.640;2024-03-22T12:23:50;17.27;;;7.70;;
67456;SDS011;54319;52.038;4.640;2024-03-22T12:26:17;19.20;;;7.50;;
67456;SDS011;54319;52.038;4.640;2024-03-22T12:28:42;13.30;;;6.93;;
67456;SDS011;54319;52.038;4.640;2024-03-22T12:31:09;14.23;;;5.70;;
67456;SDS011;54319;52.038;4.640;2024-03-22T12:33:35;12.70;;;6.13;;
67456;SDS011;54319;52.038;4.640;2024-03-22T12:36:02;13.23;;;5.67;;
67456;SDS011;54319;52.038;4.640;2024-03-22T12:38:28;9.52;;;5.05;;
67456;SDS011;54319;52.038;4.640;2024-03-22T12:40:56;13.38;;;5.75;;
67456;SDS011;54319;52.038;4.640;2024-03-22T12:43:22;13.40;;;5.40;;
67456;SDS011;54319;52.038;4.640;2024-03-22T12:45:49;15.20;;;5.13;;
67456;SDS011;54319;52.038;4.640;2024-03-22T12:48:15;11.70;;;5.30;;
67456;SDS011;54319;52.038;4.640;2024-03-22T12:50:42;11.23;;;5.27;;
67456;SDS011;54319;52.038;4.640;2024-03-22T12:53:08;14.18;;;5.63;;
67456;SDS011;54319;52.038;4.640;2024-03-22T12:55:34;16.13;;;6.18;;
67456;SDS011;54319;52.038;4.640;2024-03-22T12:58:01;15.13;;;6.03;;
67456;SDS011;54319;52.038;4.640;2024-03-22T13:00:28;12.70;;;6.28;;
67456;SDS011;54319;52.038;4.640;2024-03-22T13:02:54;13.25;;;6.47;;
67456;SDS011;54319;52.038;4.640;2024-03-22T13:05:21;13.13;;;6.68;;
67456;SDS011;54319;52.038;4.640;2024-03-22T13:07:46;13.55;;;6.78;;
67456;SDS011;54319;52.038;4.640;2024-03-22T13:10:13;16.50;;;7.07;;
67456;SDS011;54319;52.038;4.640;2024-03-22T13:12:38;18.50;;;7.88;;
67456;SDS011;54319;52.038;4.640;2024-03-22T13:15:12;16.52;;;8.05;;
67456;SDS011;54319;52.038;4.640;2024-03-22T13:17:37;13.43;;;7.60;;
67456;SDS011;54319;52.038;4.640;2024-03-22T13:20:05;17.40;;;7.97;;
67456;SDS011;54319;52.038;4.640;2024-03-22T13:22:35;15.23;;;8.00;;
67456;SDS011;54319;52.038;4.640;2024-03-22T13:25:02;13.48;;;7.35;;
67456;SDS011;54319;52.038;4.640;2024-03-22T13:27:31;17.15;;;7.80;;
67456;SDS011;54319;52.038;4.640;2024-03-22T13:32:26;19.13;;;7.60;;
67456;SDS011;54319;52.038;4.640;2024-03-22T13:34:52;16.73;;;8.15;;
67456;SDS011;54319;52.038;4.640;2024-03-22T13:37:18;15.50;;;7.45;;
67456;SDS011;54319;52.038;4.640;2024-03-22T13:39:47;17.02;;;7.38;;
67456;SDS011;54319;52.038;4.640;2024-03-22T13:42:13;17.40;;;7.43;;
67456;SDS011;54319;52.038;4.640;2024-03-22T13:44:40;16.85;;;7.05;;
67456;SDS011;54319;52.038;4.640;2024-03-22T13:47:06;15.25;;;6.93;;
67456;SDS011;54319;52.038;4.640;2024-03-22T13:49:35;15.98;;;6.65;;
67456;SDS011;54319;52.038;4.640;2024-03-22T13:52:01;13.20;;;5.63;;
67456;SDS011;54319;52.038;4.640;2024-03-22T13:54:30;12.13;;;6.22;;
67456;SDS011;54319;52.038;4.640;2024-03-22T13:56:56;11.93;;;5.68;;
67456;SDS011;54319;52.038;4.640;2024-03-22T13:59:22;19.87;;;7.20;;
67456;SDS011;54319;52.038;4.640;2024-03-22T14:01:48;16.48;;;6.60;;
67456;SDS011;54319;52.038;4.640;2024-03-22T14:04:15;16.05;;;7.28;;
67456;SDS011;54319;52.038;4.640;2024-03-22T14:06:43;12.35;;;6.43;;
67456;SDS011;54319;52.038;4.640;2024-03-22T14:09:10;14.93;;;6.75;;
67456;SDS011;54319;52.038;4.640;2024-03-22T14:11:38;14.18;;;6.60;;
67456;SDS011;54319;52.038;4.640;2024-03-22T14:14:05;15.57;;;6.55;;
67456;SDS011;54319;52.038;4.640;2024-03-22T14:16:32;15.57;;;6.38;;
67456;SDS011;54319;52.038;4.640;2024-03-22T14:18:59;12.93;;;6.00;;
67456;SDS011;54319;52.038;4.640;2024-03-22T14:21:26;12.32;;;5.40;;
67456;SDS011;54319;52.038;4.640;2024-03-22T14:23:54;18.42;;;6.18;;
67456;SDS011;54319;52.038;4.640;2024-03-22T14:28:48;18.13;;;5.50;;
67456;SDS011;54319;52.038;4.640;2024-03-22T14:31:15;13.97;;;5.80;;
67456;SDS011;54319;52.038;4.640;2024-03-22T14:33:42;17.40;;;5.72;;
67456;SDS011;54319;52.038;4.640;2024-03-22T14:36:08;15.95;;;6.70;;
67456;SDS011;54319;52.038;4.640;2024-03-22T14:41:03;16.80;;;5.47;;
67456;SDS011;54319;52.038;4.640;2024-03-22T14:43:30;12.07;;;4.97;;